sensor_id;sensor_type;location;lat;lon;timestamp;pressure;altitude;pressure_sealevel;temperature;humidity
70103;BME280;57470;50.034;15.256;2022-11-04T00:01:28;98542.16;;;11.78;97.11
70103;BME280;57470;50.034;15.256;2022-11-04T00:03:54;98541.69;;;11.73;96.88
70103;BME280;57470;50.034;15.256;2022-11-04T00:06:19;98531.56;;;11.67;96.91
70103;BME280;57470;50.034;15.256;2022-11-04T00:08:52;98541.38;;;11.66;97.26
70103;BME280;57470;50.034;15.256;2022-11-04T00:11:19;98529.34;;;11.72;96.82
70103;BME280;57470;50.034;15.256;2022-11-04T00:14:04;98524.22;;;11.80;96.77
70103;BME280;57470;50.034;15.256;2022-11-04T00:16:29;98525.69;;;11.73;96.81
70103;BME280;57470;50.034;15.256;2022-11-04T00:19:13;98519.94;;;11.68;97.14
70103;BME280;57470;50.034;15.256;2022-11-04T00:21:39;98520.66;;;11.70;96.87
70103;BME280;57470;50.034;15.256;2022-11-04T00:24:23;98528.53;;;11.72;96.86
70103;BME280;57470;50.034;15.256;2022-11-04T00:27:08;98522.19;;;11.73;96.85
70103;BME280;57470;50.034;15.256;2022-11-04T00:29:52;98524.84;;;11.63;97.04
70103;BME280;57470;50.034;15.256;2022-11-04T00:32:18;98520.38;;;11.73;96.50
70103;BME280;57470;50.034;15.256;2022-11-04T00:35:02;98519.78;;;11.60;97.45
70103;BME280;57470;50.034;15.256;2022-11-04T00:37:27;98519.66;;;11.61;97.42
70103;BME280;57470;50.034;15.256;2022-11-04T00:39:53;98515.59;;;11.67;97.27
70103;BME280;57470;50.034;15.256;2022-11-04T00:42:18;98509.00;;;11.61;97.67
70103;BME280;57470;50.034;15.256;2022-11-04T00:44:43;98499.72;;;11.56;97.69
70103;BME280;57470;50.034;15.256;2022-11-04T00:47:09;98499.44;;;11.59;97.69
70103;BME280;57470;50.034;15.256;2022-11-04T00:49:34;98499.03;;;11.63;97.29
70103;BME280;57470;50.034;15.256;2022-11-04T00:52:00;98501.28;;;11.58;97.51
70103;BME280;57470;50.034;15.256;2022-11-04T00:54:25;98506.84;;;11.55;97.32
70103;BME280;57470;50.034;15.256;2022-11-04T00:56:50;98511.19;;;11.56;97.32
70103;BME280;57470;50.034;15.256;2022-11-04T00:59:17;98499.56;;;11.57;97.40
70103;BME280;57470;50.034;15.256;2022-11-04T01:01:43;98503.75;;;11.50;97.58
70103;BME280;57470;50.034;15.256;2022-11-04T01:04:08;98485.13;;;11.50;97.56
70103;BME280;57470;50.034;15.256;2022-11-04T01:06:34;98482.59;;;11.49;97.72
70103;BME280;57470;50.034;15.256;2022-11-04T01:09:03;98477.13;;;11.50;97.81
70103;BME280;57470;50.034;15.256;2022-11-04T01:11:28;98468.69;;;11.45;98.33
70103;BME280;57470;50.034;15.256;2022-11-04T01:13:56;98471.22;;;11.47;97.90
70103;BME280;57470;50.034;15.256;2022-11-04T01:16:22;98465.22;;;11.45;98.37
70103;BME280;57470;50.034;15.256;2022-11-04T01:18:48;98458.03;;;11.45;98.10
70103;BME280;57470;50.034;15.256;2022-11-04T01:21:14;98456.50;;;11.43;98.17
70103;BME280;57470;50.034;15.256;2022-11-04T01:23:42;98449.50;;;11.42;98.62
70103;BME280;57470;50.034;15.256;2022-11-04T01:26:19;98442.91;;;11.46;98.41
70103;BME280;57470;50.034;15.256;2022-11-04T01:28:45;98442.50;;;11.41;98.45
70103;BME280;57470;50.034;15.256;2022-11-04T01:31:13;98443.19;;;11.43;98.59
70103;BME280;57470;50.034;15.256;2022-11-04T01:33:39;98447.94;;;11.39;98.46
70103;BME280;57470;50.034;15.256;2022-11-04T01:36:06;98435.34;;;11.41;98.37
70103;BME280;57470;50.034;15.256;2022-11-04T01:38:32;98442.63;;;11.39;98.17
70103;BME280;57470;50.034;15.256;2022-11-04T01:40:58;98437.88;;;11.43;98.35
70103;BME280;57470;50.034;15.256;2022-11-04T01:43:42;98440.13;;;11.47;98.44
70103;BME280;57470;50.034;15.256;2022-11-04T01:46:20;98430.72;;;11.43;98.09
70103;BME280;57470;50.034;15.256;2022-11-04T01:48:47;98427.50;;;11.40;98.53
70103;BME280;57470;50.034;15.256;2022-11-04T01:51:13;98434.06;;;11.45;98.58
70103;BME280;57470;50.034;15.256;2022-11-04T01:53:40;98427.13;;;11.54;98.04
70103;BME280;57470;50.034;15.256;2022-11-04T01:56:10;98430.06;;;11.51;98.18
70103;BME280;57470;50.034;15.256;2022-11-04T01:58:40;98433.72;;;11.59;97.98
70103;BME280;57470;50.034;15.256;2022-11-04T02:01:08;98428.13;;;11.72;97.32
70103;BME280;57470;50.034;15.256;2022-11-04T02:03:38;98431.75;;;11.61;97.35
70103;BME280;57470;50.034;15.256;2022-11-04T02:06:05;98423.63;;;11.63;97.65
70103;BME280;57470;50.034;15.256;2022-11-04T02:08:31;98426.13;;;11.55;97.66
70103;BME280;57470;50.034;15.256;2022-11-04T02:10:59;98432.03;;;11.58;97.97
70103;BME280;57470;50.034;15.256;2022-11-04T02:13:26;98429.22;;;11.60;98.20
70103;BME280;57470;50.034;15.256;2022-11-04T02:35:31;98386.25;;;11.24;99.07
70103;BME280;57470;50.034;15.256;2022-11-04T02:37:59;98383.72;;;11.23;99.37
70103;BME280;57470;50.034;15.256;2022-11-04T02:41:06;98389.06;;;11.23;99.28
70103;BME280;57470;50.034;15.256;2022-11-04T02:43:46;98383.72;;;11.23;99.22
70103;BME280;57470;50.034;15.256;2022-11-04T02:46:27;98382.06;;;11.32;98.72
70103;BME280;57470;50.034;15.256;2022-11-04T02:49:05;98381.19;;;11.21;99.23
70103;BME280;57470;50.034;15.256;2022-11-04T02:51:42;98389.34;;;11.29;99.24
70103;BME280;57470;50.034;15.256;2022-11-04T02:54:19;98392.50;;;11.54;98.92
70103;BME280;57470;50.034;15.256;2022-11-04T02:56:50;98391.63;;;11.34;99.06
70103;BME280;57470;50.034;15.256;2022-11-04T02:59:45;98389.09;;;11.33;99.25
70103;BME280;57470;50.034;15.256;2022-11-04T03:02:17;98393.81;;;11.29;99.00
70103;BME280;57470;50.034;15.256;2022-11-04T03:04:48;98395.00;;;11.36;98.65
70103;BME280;57470;50.034;15.256;2022-11-04T03:07:16;98386.84;;;11.38;98.36
70103;BME280;57470;50.034;15.256;2022-11-04T03:09:48;98385.13;;;11.17;98.96
70103;BME280;57470;50.034;15.256;2022-11-04T03:12:16;98372.94;;;11.24;99.27
70103;BME280;57470;50.034;15.256;2022-11-04T03:14:52;98380.34;;;11.21;99.27
70103;BME280;57470;50.034;15.256;2022-11-04T03:17:28;98366.50;;;11.17;99.35
70103;BME280;57470;50.034;15.256;2022-11-04T03:19:57;98366.50;;;11.17;99.52
70103;BME280;57470;50.034;15.256;2022-11-04T03:22:34;98364.69;;;11.18;99.90
70103;BME280;57470;50.034;15.256;2022-11-04T03:25:02;98367.75;;;11.23;99.09
70103;BME280;57470;50.034;15.256;2022-11-04T03:27:34;98360.19;;;11.28;99.54
70103;BME280;57470;50.034;15.256;2022-11-04T03:30:06;98360.03;;;11.20;99.81
70103;BME280;57470;50.034;15.256;2022-11-04T03:35:13;98354.31;;;11.24;99.26
70103;BME280;57470;50.034;15.256;2022-11-04T03:37:41;98363.88;;;11.27;99.23
70103;BME280;57470;50.034;15.256;2022-11-04T03:40:07;98355.00;;;11.17;99.21
70103;BME280;57470;50.034;15.256;2022-11-04T03:42:37;98360.34;;;11.26;99.68
70103;BME280;57470;50.034;15.256;2022-11-04T03:45:04;98348.31;;;11.32;99.26
70103;BME280;57470;50.034;15.256;2022-11-04T03:47:30;98345.66;;;11.32;99.00
70103;BME280;57470;50.034;15.256;2022-11-04T03:50:05;98347.31;;;11.23;99.33
70103;BME280;57470;50.034;15.256;2022-11-04T03:52:32;98348.03;;;11.25;99.53
70103;BME280;57470;50.034;15.256;2022-11-04T03:54:58;98345.50;;;11.24;99.17
70103;BME280;57470;50.034;15.256;2022-11-04T03:58:06;98332.75;;;11.37;98.90
70103;BME280;57470;50.034;15.256;2022-11-04T04:00:18;98336.56;;;11.35;99.30
70103;BME280;57470;50.034;15.256;2022-11-04T04:03:01;98330.63;;;11.21;99.60
70103;BME280;57470;50.034;15.256;2022-11-04T04:05:32;98353.44;;;11.14;99.77
70103;BME280;57470;50.034;15.256;2022-11-04T04:08:27;98371.38;;;11.12;100.00
70103;BME280;57470;50.034;15.256;2022-11-04T04:11:15;98391.41;;;11.16;100.00
70103;BME280;57470;50.034;15.256;2022-11-04T04:18:53;98391.31;;;11.37;99.23
70103;BME280;57470;50.034;15.256;2022-11-04T04:21:31;98389.47;;;11.28;99.28
70103;BME280;57470;50.034;15.256;2022-11-04T04:24:01;98402.41;;;11.33;99.27
70103;BME280;57470;50.034;15.256;2022-11-04T04:26:48;98395.22;;;11.23;99.84
70103;BME280;57470;50.034;15.256;2022-11-04T04:29:34;98415.03;;;11.40;99.24
70103;BME280;57470;50.034;15.256;2022-11-04T04:32:02;98423.13;;;11.39;99.29
70103;BME280;57470;50.034;15.256;2022-11-04T04:34:30;98428.81;;;11.64;98.06
70103;BME280;57470;50.034;15.256;2022-11-04T04:37:00;98442.63;;;11.89;97.08
70103;BME280;57470;50.034;15.256;2022-11-04T04:39:47;98439.69;;;12.01;95.58
70103;BME280;57470;50.034;15.256;2022-11-04T04:42:33;98440.75;;;11.70;96.97
70103;BME280;57470;50.034;15.256;2022-11-04T04:45:30;98442.91;;;11.95;96.40
70103;BME280;57470;50.034;15.256;2022-11-04T04:47:56;98448.97;;;12.17;94.75
70103;BME280;57470;50.034;15.256;2022-11-04T04:50:22;98442.75;;;12.26;94.24
70103;BME280;57470;50.034;15.256;2022-11-04T04:52:51;98445.59;;;12.24;94.38
70103;BME280;57470;50.034;15.256;2022-11-04T04:55:17;98445.28;;;12.27;93.95
70103;BME280;57470;50.034;15.256;2022-11-04T04:57:43;98442.22;;;12.32;94.08
70103;BME280;57470;50.034;15.256;2022-11-04T05:00:12;98434.94;;;12.34;93.14
70103;BME280;57470;50.034;15.256;2022-11-04T05:02:37;98433.81;;;11.98;95.33
70103;BME280;57470;50.034;15.256;2022-11-04T05:05:03;98439.41;;;12.05;95.52
70103;BME280;57470;50.034;15.256;2022-11-04T05:07:29;98428.31;;;12.09;95.41
70103;BME280;57470;50.034;15.256;2022-11-04T05:09:54;98422.84;;;12.11;95.38
70103;BME280;57470;50.034;15.256;2022-11-04T05:12:20;98416.28;;;11.95;95.86
70103;BME280;57470;50.034;15.256;2022-11-04T05:14:45;98416.28;;;12.15;95.05
70103;BME280;57470;50.034;15.256;2022-11-04T05:17:10;98418.94;;;11.95;95.80
70103;BME280;57470;50.034;15.256;2022-11-04T05:19:36;98412.19;;;12.01;95.39
70103;BME280;57470;50.034;15.256;2022-11-04T05:22:01;98406.31;;;11.97;95.93
70103;BME280;57470;50.034;15.256;2022-11-04T05:24:27;98406.72;;;12.02;95.68
70103;BME280;57470;50.034;15.256;2022-11-04T05:26:52;98404.63;;;12.06;95.91
70103;BME280;57470;50.034;15.256;2022-11-04T05:29:18;98406.59;;;12.14;95.24
70103;BME280;57470;50.034;15.256;2022-11-04T05:31:43;98409.13;;;12.15;95.19
70103;BME280;57470;50.034;15.256;2022-11-04T05:34:10;98406.16;;;12.09;95.07
70103;BME280;57470;50.034;15.256;2022-11-04T05:36:36;98415.56;;;12.03;95.70
70103;BME280;57470;50.034;15.256;2022-11-04T05:39:02;98416.28;;;12.05;95.54
70103;BME280;57470;50.034;15.256;2022-11-04T05:41:28;98410.38;;;12.11;95.07
70103;BME280;57470;50.034;15.256;2022-11-04T05:43:55;98407.97;;;12.18;94.79
70103;BME280;57470;50.034;15.256;2022-11-04T05:46:21;98413.31;;;12.18;94.81
70103;BME280;57470;50.034;15.256;2022-11-04T05:48:47;98412.75;;;12.24;95.03
70103;BME280;57470;50.034;15.256;2022-11-04T05:51:14;98412.19;;;12.01;94.97
70103;BME280;57470;50.034;15.256;2022-11-04T05:53:40;98412.63;;;12.06;95.89
70103;BME280;57470;50.034;15.256;2022-11-04T05:56:05;98408.56;;;12.21;94.90
70103;BME280;57470;50.034;15.256;2022-11-04T05:58:31;98416.94;;;12.26;94.78
70103;BME280;57470;50.034;15.256;2022-11-04T06:01:24;98411.34;;;12.29;94.31
70103;BME280;57470;50.034;15.256;2022-11-04T06:03:50;98410.25;;;12.13;94.69
70103;BME280;57470;50.034;15.256;2022-11-04T06:06:16;98409.53;;;12.20;95.08
70103;BME280;57470;50.034;15.256;2022-11-04T06:08:41;98415.25;;;12.35;94.31
70103;BME280;57470;50.034;15.256;2022-11-04T06:11:07;98413.88;;;12.12;94.61
70103;BME280;57470;50.034;15.256;2022-11-04T06:13:32;98412.19;;;12.30;94.25
70103;BME280;57470;50.034;15.256;2022-11-04T06:15:57;98426.22;;;12.13;94.60
70103;BME280;57470;50.034;15.256;2022-11-04T06:18:23;98414.31;;;12.17;94.64
70103;BME280;57470;50.034;15.256;2022-11-04T06:20:48;98411.94;;;12.23;94.52
70103;BME280;57470;50.034;15.256;2022-11-04T06:23:14;98419.91;;;12.23;94.21
70103;BME280;57470;50.034;15.256;2022-11-04T06:25:39;98422.59;;;12.33;94.08
70103;BME280;57470;50.034;15.256;2022-11-04T06:28:04;98422.84;;;12.30;94.33
70103;BME280;57470;50.034;15.256;2022-11-04T06:30:30;98423.69;;;12.21;94.39
70103;BME280;57470;50.034;15.256;2022-11-04T06:32:55;98422.28;;;12.36;93.84
70103;BME280;57470;50.034;15.256;2022-11-04T06:35:21;98417.53;;;12.11;95.35
70103;BME280;57470;50.034;15.256;2022-11-04T06:37:46;98420.63;;;12.25;94.93
70103;BME280;57470;50.034;15.256;2022-11-04T06:40:11;98415.25;;;12.35;94.35
70103;BME280;57470;50.034;15.256;2022-11-04T06:42:37;98404.06;;;12.31;94.38
70103;BME280;57470;50.034;15.256;2022-11-04T06:45:03;98403.22;;;12.31;94.08
70103;BME280;57470;50.034;15.256;2022-11-04T06:47:29;98409.78;;;12.27;94.33
70103;BME280;57470;50.034;15.256;2022-11-04T06:49:54;98405.19;;;12.10;95.33
70103;BME280;57470;50.034;15.256;2022-11-04T06:52:19;98404.34;;;12.19;95.17
70103;BME280;57470;50.034;15.256;2022-11-04T06:54:45;98408.09;;;12.35;94.43
70103;BME280;57470;50.034;15.256;2022-11-04T06:57:12;98404.91;;;12.22;94.21
70103;BME280;57470;50.034;15.256;2022-11-04T06:59:38;98405.03;;;12.30;94.59
70103;BME280;57470;50.034;15.256;2022-11-04T07:02:03;98412.44;;;12.46;93.78
70103;BME280;57470;50.034;15.256;2022-11-04T07:04:29;98405.44;;;12.45;93.88
70103;BME280;57470;50.034;15.256;2022-11-04T07:06:54;98415.81;;;12.48;93.90
70103;BME280;57470;50.034;15.256;2022-11-04T07:09:19;98403.72;;;12.54;93.16
70103;BME280;57470;50.034;15.256;2022-11-04T07:11:45;98411.47;;;12.28;94.00
70103;BME280;57470;50.034;15.256;2022-11-04T07:14:11;98413.59;;;12.44;93.89
70103;BME280;57470;50.034;15.256;2022-11-04T07:16:37;98405.72;;;12.42;94.14
70103;BME280;57470;50.034;15.256;2022-11-04T07:19:03;98397.28;;;12.47;93.94
70103;BME280;57470;50.034;15.256;2022-11-04T07:21:28;98397.88;;;12.40;94.23
70103;BME280;57470;50.034;15.256;2022-11-04T07:23:54;98399.22;;;12.54;93.75
70103;BME280;57470;50.034;15.256;2022-11-04T07:26:20;98403.78;;;12.25;95.01
70103;BME280;57470;50.034;15.256;2022-11-04T07:28:46;98401.13;;;12.34;94.85
70103;BME280;57470;50.034;15.256;2022-11-04T07:31:12;98394.50;;;12.29;95.71
70103;BME280;57470;50.034;15.256;2022-11-04T07:33:38;98399.09;;;12.56;93.82
70103;BME280;57470;50.034;15.256;2022-11-04T07:36:05;98398.94;;;12.57;93.69
70103;BME280;57470;50.034;15.256;2022-11-04T07:38:31;98395.69;;;12.63;93.39
70103;BME280;57470;50.034;15.256;2022-11-04T07:40:57;98390.94;;;12.57;94.04
70103;BME280;57470;50.034;15.256;2022-11-04T07:43:23;98387.69;;;12.63;93.88
70103;BME280;57470;50.034;15.256;2022-11-04T07:46:05;98398.50;;;12.71;92.90
70103;BME280;57470;50.034;15.256;2022-11-04T07:48:30;98393.75;;;12.65;93.15
70103;BME280;57470;50.034;15.256;2022-11-04T07:50:57;98391.31;;;12.72;93.39
70103;BME280;57470;50.034;15.256;2022-11-04T07:53:24;98395.16;;;12.69;93.03
70103;BME280;57470;50.034;15.256;2022-11-04T07:55:50;98395.16;;;12.60;93.84
70103;BME280;57470;50.034;15.256;2022-11-04T07:58:18;98395.69;;;12.73;93.18
70103;BME280;57470;50.034;15.256;2022-11-04T08:00:43;98405.81;;;12.69;93.06
70103;BME280;57470;50.034;15.256;2022-11-04T08:03:09;98411.78;;;12.34;94.95
70103;BME280;57470;50.034;15.256;2022-11-04T08:05:34;98407.16;;;11.98;96.84
70103;BME280;57470;50.034;15.256;2022-11-04T08:07:59;98408.53;;;11.92;97.83
70103;BME280;57470;50.034;15.256;2022-11-04T08:10:25;98410.81;;;11.97;97.62
70103;BME280;57470;50.034;15.256;2022-11-04T08:12:51;98412.63;;;11.87;97.56
70103;BME280;57470;50.034;15.256;2022-11-04T08:15:16;98413.41;;;11.68;99.09
70103;BME280;57470;50.034;15.256;2022-11-04T08:17:42;98411.34;;;11.81;98.71
70103;BME280;57470;50.034;15.256;2022-11-04T08:20:07;98403.91;;;11.94;97.96
70103;BME280;57470;50.034;15.256;2022-11-04T08:22:34;98401.13;;;12.06;97.54
70103;BME280;57470;50.034;15.256;2022-11-04T08:24:59;98383.97;;;12.27;96.50
70103;BME280;57470;50.034;15.256;2022-11-04T08:27:25;98384.41;;;12.42;95.27
70103;BME280;57470;50.034;15.256;2022-11-04T08:29:50;98383.25;;;12.45;95.52
70103;BME280;57470;50.034;15.256;2022-11-04T08:32:16;98381.53;;;12.63;94.11
70103;BME280;57470;50.034;15.256;2022-11-04T08:34:41;98382.19;;;12.74;93.34
70103;BME280;57470;50.034;15.256;2022-11-04T08:37:07;98382.69;;;12.60;93.93
70103;BME280;57470;50.034;15.256;2022-11-04T08:39:32;98384.81;;;12.37;95.46
70103;BME280;57470;50.034;15.256;2022-11-04T08:41:58;98390.84;;;12.30;95.58
70103;BME280;57470;50.034;15.256;2022-11-04T08:44:23;98389.25;;;12.56;95.12
70103;BME280;57470;50.034;15.256;2022-11-04T08:46:49;98378.19;;;12.51;94.93
70103;BME280;57470;50.034;15.256;2022-11-04T08:49:15;98378.84;;;12.63;94.85
70103;BME280;57470;50.034;15.256;2022-11-04T08:51:43;98384.75;;;12.66;94.55
70103;BME280;57470;50.034;15.256;2022-11-04T08:54:09;98400.03;;;12.74;94.46
70103;BME280;57470;50.034;15.256;2022-11-04T08:56:36;98392.44;;;12.79;93.71
70103;BME280;57470;50.034;15.256;2022-11-04T08:59:04;98380.63;;;12.82;93.43
70103;BME280;57470;50.034;15.256;2022-11-04T09:01:31;98383.72;;;12.87;93.62
70103;BME280;57470;50.034;15.256;2022-11-04T09:03:57;98380.06;;;12.88;93.82
70103;BME280;57470;50.034;15.256;2022-11-04T09:06:29;98379.41;;;12.66;95.15
70103;BME280;57470;50.034;15.256;2022-11-04T09:08:56;98375.44;;;12.33;95.68
70103;BME280;57470;50.034;15.256;2022-11-04T09:11:27;98379.06;;;12.32;96.15
70103;BME280;57470;50.034;15.256;2022-11-04T09:13:52;98390.72;;;12.12;95.71
70103;BME280;57470;50.034;15.256;2022-11-04T09:16:17;98382.41;;;12.44;95.38
70103;BME280;57470;50.034;15.256;2022-11-04T09:18:43;98386.47;;;12.48;95.58
70103;BME280;57470;50.034;15.256;2022-11-04T09:21:09;98386.75;;;12.45;94.50
70103;BME280;57470;50.034;15.256;2022-11-04T09:23:35;98378.75;;;12.55;93.97
70103;BME280;57470;50.034;15.256;2022-11-04T09:26:13;98377.25;;;12.43;94.11
70103;BME280;57470;50.034;15.256;2022-11-04T09:28:38;98369.81;;;12.27;95.31
70103;BME280;57470;50.034;15.256;2022-11-04T09:31:06;98370.38;;;12.11;95.18
70103;BME280;57470;50.034;15.256;2022-11-04T09:33:32;98375.84;;;12.29;95.08
70103;BME280;57470;50.034;15.256;2022-11-04T09:35:58;98372.94;;;12.03;95.33
70103;BME280;57470;50.034;15.256;2022-11-04T09:38:24;98379.81;;;12.06;95.98
70103;BME280;57470;50.034;15.256;2022-11-04T09:40:50;98375.72;;;12.21;96.15
70103;BME280;57470;50.034;15.256;2022-11-04T09:43:39;98374.28;;;12.36;96.01
70103;BME280;57470;50.034;15.256;2022-11-04T09:46:12;98376.94;;;12.36;95.09
70103;BME280;57470;50.034;15.256;2022-11-04T09:48:44;98382.28;;;12.36;95.10
70103;BME280;57470;50.034;15.256;2022-11-04T09:51:12;98377.81;;;12.27;95.76
70103;BME280;57470;50.034;15.256;2022-11-04T09:53:50;98372.06;;;12.31;95.97
70103;BME280;57470;50.034;15.256;2022-11-04T09:56:21;98366.19;;;12.09;96.30
70103;BME280;57470;50.034;15.256;2022-11-04T09:58:48;98365.38;;;11.98;97.83
70103;BME280;57470;50.034;15.256;2022-11-04T10:09:21;98363.25;;;12.12;97.62
70103;BME280;57470;50.034;15.256;2022-11-04T10:19:42;98360.59;;;11.92;98.39
70103;BME280;57470;50.034;15.256;2022-11-04T10:22:27;98362.00;;;11.96;98.44
70103;BME280;57470;50.034;15.256;2022-11-04T10:27:32;98363.09;;;12.03;98.13
70103;BME280;57470;50.034;15.256;2022-11-04T10:30:03;98362.41;;;12.01;98.67
70103;BME280;57470;50.034;15.256;2022-11-04T10:32:34;98347.22;;;11.63;99.57
70103;BME280;57470;50.034;15.256;2022-11-04T10:35:29;98337.44;;;11.83;99.02
70103;BME280;57470;50.034;15.256;2022-11-04T10:38:00;98347.41;;;11.91;98.47
70103;BME280;57470;50.034;15.256;2022-11-04T10:40:35;98354.66;;;11.60;99.55
70103;BME280;57470;50.034;15.256;2022-11-04T10:43:02;98346.78;;;11.39;99.74
70103;BME280;57470;50.034;15.256;2022-11-04T10:45:42;98343.91;;;11.12;100.00
70103;BME280;57470;50.034;15.256;2022-11-04T10:48:17;98350.44;;;11.48;100.00
70103;BME280;57470;50.034;15.256;2022-11-04T10:50:51;98340.72;;;11.27;100.00
70103;BME280;57470;50.034;15.256;2022-11-04T10:53:26;98346.91;;;11.38;100.00
70103;BME280;57470;50.034;15.256;2022-11-04T10:56:06;98345.69;;;11.51;100.00
70103;BME280;57470;50.034;15.256;2022-11-04T10:58:40;98343.72;;;11.44;100.00
70103;BME280;57470;50.034;15.256;2022-11-04T11:01:34;98337.53;;;11.34;100.00
70103;BME280;57470;50.034;15.256;2022-11-04T11:04:00;98338.47;;;11.23;100.00
70103;BME280;57470;50.034;15.256;2022-11-04T11:06:34;98334.13;;;11.22;100.00
70103;BME280;57470;50.034;15.256;2022-11-04T11:09:18;98332.72;;;11.27;100.00
70103;BME280;57470;50.034;15.256;2022-11-04T11:11:48;98324.22;;;11.43;100.00
70103;BME280;57470;50.034;15.256;2022-11-04T11:16:51;98313.09;;;11.19;100.00
70103;BME280;57470;50.034;15.256;2022-11-04T11:19:19;98323.19;;;11.06;100.00
70103;BME280;57470;50.034;15.256;2022-11-04T11:21:53;98314.38;;;11.15;100.00
70103;BME280;57470;50.034;15.256;2022-11-04T11:24:21;98312.25;;;10.99;100.00
70103;BME280;57470;50.034;15.256;2022-11-04T11:26:52;98311.13;;;11.11;100.00
70103;BME280;57470;50.034;15.256;2022-11-04T11:29:24;98314.13;;;11.18;100.00
70103;BME280;57470;50.034;15.256;2022-11-04T11:31:52;98319.84;;;11.13;100.00
70103;BME280;57470;50.034;15.256;2022-11-04T11:34:30;98324.84;;;10.97;100.00
70103;BME280;57470;50.034;15.256;2022-11-04T11:36:57;98318.66;;;10.97;100.00
70103;BME280;57470;50.034;15.256;2022-11-04T11:39:26;98321.22;;;11.08;100.00
70103;BME280;57470;50.034;15.256;2022-11-04T11:42:01;98318.44;;;11.09;100.00
70103;BME280;57470;50.034;15.256;2022-11-04T11:44:37;98316.75;;;11.08;100.00
70103;BME280;57470;50.034;15.256;2022-11-04T11:47:43;98309.19;;;11.13;100.00
70103;BME280;57470;50.034;15.256;2022-11-04T11:50:16;98292.00;;;10.77;100.00
70103;BME280;57470;50.034;15.256;2022-11-04T11:52:43;98293.09;;;10.75;100.00
70103;BME280;57470;50.034;15.256;2022-11-04T11:55:22;98289.00;;;10.61;100.00
70103;BME280;57470;50.034;15.256;2022-11-04T11:58:24;98286.78;;;10.66;100.00
70103;BME280;57470;50.034;15.256;2022-11-04T12:00:57;98284.09;;;10.57;100.00
70103;BME280;57470;50.034;15.256;2022-11-04T12:03:32;98280.28;;;10.49;100.00
70103;BME280;57470;50.034;15.256;2022-11-04T12:20:02;98278.56;;;10.79;100.00
70103;BME280;57470;50.034;15.256;2022-11-04T12:22:40;98278.88;;;10.85;100.00
70103;BME280;57470;50.034;15.256;2022-11-04T12:25:19;98274.13;;;10.89;100.00
70103;BME280;57470;50.034;15.256;2022-11-04T12:28:01;98257.06;;;10.51;100.00
70103;BME280;57470;50.034;15.256;2022-11-04T12:30:46;98257.47;;;10.47;100.00
70103;BME280;57470;50.034;15.256;2022-11-04T12:42:06;98247.50;;;10.09;100.00
70103;BME280;57470;50.034;15.256;2022-11-04T12:47:35;98241.50;;;10.47;100.00
70103;BME280;57470;50.034;15.256;2022-11-04T13:01:07;98239.25;;;10.73;100.00
70103;BME280;57470;50.034;15.256;2022-11-04T13:06:15;98234.47;;;10.76;100.00
70103;BME280;57470;50.034;15.256;2022-11-04T13:08:50;98241.44;;;10.68;100.00
70103;BME280;57470;50.034;15.256;2022-11-04T13:11:25;98245.09;;;10.67;100.00
70103;BME280;57470;50.034;15.256;2022-11-04T13:14:03;98248.53;;;10.58;100.00
70103;BME280;57470;50.034;15.256;2022-11-04T13:16:39;98255.63;;;10.78;100.00
70103;BME280;57470;50.034;15.256;2022-11-04T13:19:28;98264.56;;;10.77;100.00
70103;BME280;57470;50.034;15.256;2022-11-04T13:21:57;98264.59;;;10.86;100.00
70103;BME280;57470;50.034;15.256;2022-11-04T13:24:27;98269.94;;;10.96;100.00
70103;BME280;57470;50.034;15.256;2022-11-04T13:26:59;98274.44;;;11.05;100.00
70103;BME280;57470;50.034;15.256;2022-11-04T13:29:26;98273.00;;;11.01;100.00
70103;BME280;57470;50.034;15.256;2022-11-04T13:32:17;98269.38;;;11.02;100.00
70103;BME280;57470;50.034;15.256;2022-11-04T13:37:32;98268.69;;;11.00;100.00
70103;BME280;57470;50.034;15.256;2022-11-04T13:45:19;98269.53;;;11.10;100.00
70103;BME280;57470;50.034;15.256;2022-11-04T13:47:56;98275.69;;;11.11;100.00
70103;BME280;57470;50.034;15.256;2022-11-04T13:50:37;98276.44;;;11.22;100.00
70103;BME280;57470;50.034;15.256;2022-11-04T13:53:08;98272.53;;;11.26;100.00
70103;BME280;57470;50.034;15.256;2022-11-04T13:55:41;98268.44;;;11.22;100.00
70103;BME280;57470;50.034;15.256;2022-11-04T13:58:20;98265.22;;;11.28;100.00
70103;BME280;57470;50.034;15.256;2022-11-04T14:03:52;98265.53;;;11.35;100.00
70103;BME280;57470;50.034;15.256;2022-11-04T14:09:34;98255.41;;;11.39;100.00
70103;BME280;57470;50.034;15.256;2022-11-04T14:14:57;98256.97;;;11.32;100.00
70103;BME280;57470;50.034;15.256;2022-11-04T14:27:44;98254.72;;;11.17;100.00
70103;BME280;57470;50.034;15.256;2022-11-04T14:32:54;98249.25;;;11.00;100.00
70103;BME280;57470;50.034;15.256;2022-11-04T14:35:22;98253.03;;;11.16;100.00
70103;BME280;57470;50.034;15.256;2022-11-04T14:37:51;98253.25;;;10.94;100.00
70103;BME280;57470;50.034;15.256;2022-11-04T14:40:27;98256.78;;;11.04;100.00
70103;BME280;57470;50.034;15.256;2022-11-04T14:42:57;98246.41;;;11.01;100.00
70103;BME280;57470;50.034;15.256;2022-11-04T14:45:27;98246.56;;;10.90;100.00
70103;BME280;57470;50.034;15.256;2022-11-04T14:48:06;98249.91;;;10.82;100.00
70103;BME280;57470;50.034;15.256;2022-11-04T14:50:41;98245.13;;;10.86;100.00
70103;BME280;57470;50.034;15.256;2022-11-04T14:53:09;98251.16;;;10.88;100.00
70103;BME280;57470;50.034;15.256;2022-11-04T14:55:38;98256.91;;;10.93;100.00
70103;BME280;57470;50.034;15.256;2022-11-04T14:58:25;98246.41;;;10.82;100.00
70103;BME280;57470;50.034;15.256;2022-11-04T15:00:54;98259.56;;;10.93;100.00
70103;BME280;57470;50.034;15.256;2022-11-04T15:03:35;98252.00;;;10.88;100.00